createdAt,value
2018-03-14T00:00:39.010Z,27.80
2018-03-14T00:01:38.986Z,30.60
2018-03-14T00:03:33.925Z,26.20
2018-03-14T00:04:33.976Z,29.70
2018-03-14T00:06:29.353Z,29.40
2018-03-14T00:07:28.338Z,28.70
2018-03-14T00:09:22.788Z,24.40
2018-03-14T00:10:22.284Z,27.70
2018-03-14T00:12:19.254Z,25.90
2018-03-14T00:13:19.262Z,26.40
2018-03-14T00:15:12.372Z,28.70
2018-03-14T00:16:11.736Z,27.80
2018-03-14T00:18:06.757Z,24.90
2018-03-14T00:19:06.694Z,26.70
2018-03-14T00:21:01.146Z,29.30
2018-03-14T00:22:00.610Z,31.40
2018-03-14T00:23:57.560Z,30.40
2018-03-14T00:24:57.058Z,29.00
2018-03-14T00:26:53.477Z,34.30
2018-03-14T00:27:52.971Z,30.40
2018-03-14T00:29:48.415Z,29.20
2018-03-14T00:30:48.383Z,29.70
2018-03-14T00:32:42.333Z,29.30
2018-03-14T00:33:41.807Z,31.20
2018-03-14T00:35:37.726Z,33.30
2018-03-14T00:36:37.732Z,32.00
2018-03-14T00:38:33.627Z,29.00
2018-03-14T00:39:34.175Z,28.50
2018-03-14T00:41:28.093Z,29.30
2018-03-14T00:42:28.069Z,28.80
2018-03-14T00:44:22.511Z,32.80
2018-03-14T00:45:22.502Z,31.60
2018-03-14T00:47:16.927Z,30.60
2018-03-14T00:48:17.467Z,33.50
2018-03-14T00:50:11.409Z,32.30
2018-03-14T00:51:11.406Z,31.20
2018-03-14T00:53:05.826Z,33.00
2018-03-14T00:54:05.783Z,30.70
2018-03-14T00:56:03.167Z,30.30
2018-03-14T00:57:02.235Z,30.70
2018-03-14T00:58:57.670Z,33.00
2018-03-14T00:59:57.649Z,34.90
2018-03-14T01:01:54.072Z,30.10
2018-03-14T01:02:54.568Z,33.50
2018-03-14T01:04:50.029Z,30.80
2018-03-14T01:05:48.998Z,31.50
2018-03-14T01:07:45.444Z,32.10
2018-03-14T01:08:45.451Z,29.00
2018-03-14T01:10:39.360Z,29.10
2018-03-14T01:11:39.367Z,30.80
2018-03-14T01:13:35.306Z,30.00
2018-03-14T01:14:35.294Z,28.50
2018-03-14T01:16:29.763Z,28.30
2018-03-14T01:17:29.748Z,33.90
2018-03-14T01:19:24.206Z,30.50
2018-03-14T01:20:24.192Z,30.80
2018-03-14T01:22:20.130Z,32.50
2018-03-14T01:23:20.132Z,32.50
2018-03-14T01:25:16.590Z,30.00
2018-03-14T01:26:16.061Z,31.10
2018-03-14T01:28:10.450Z,32.30
2018-03-14T01:29:10.453Z,33.40
2018-03-14T01:31:06.909Z,33.30
2018-03-14T01:32:06.393Z,36.10
2018-03-14T01:34:00.828Z,33.50
2018-03-14T01:35:01.330Z,33.20
2018-03-14T01:36:56.774Z,29.60
2018-03-14T01:37:56.745Z,33.10
2018-03-14T01:39:51.213Z,31.00
2018-03-14T01:40:51.217Z,33.20
2018-03-14T01:42:47.667Z,30.90
2018-03-14T01:43:47.123Z,31.60
2018-03-14T01:45:43.096Z,31.50
2018-03-14T01:46:43.062Z,29.40
2018-03-14T01:48:39.507Z,30.00
2018-03-14T01:49:38.948Z,30.00
2018-03-14T01:51:33.418Z,31.20
2018-03-14T01:52:33.362Z,32.50
2018-03-14T01:54:29.278Z,28.30
2018-03-14T01:55:29.292Z,33.00
2018-03-14T01:57:26.238Z,31.30
2018-03-14T01:58:25.214Z,32.10
2018-03-14T02:00:19.686Z,29.90
2018-03-14T02:01:20.159Z,27.40
2018-03-14T02:03:16.083Z,32.70
2018-03-14T02:04:15.571Z,30.10
2018-03-14T02:06:10.024Z,34.50
2018-03-14T02:07:10.499Z,33.10
2018-03-14T02:09:06.428Z,33.20
2018-03-14T02:10:06.428Z,31.10
2018-03-14T02:12:00.814Z,33.80
2018-03-14T02:13:00.283Z,31.60
2018-03-14T02:14:54.722Z,31.90
2018-03-14T02:15:54.727Z,33.00
2018-03-14T02:17:48.190Z,28.20
2018-03-14T02:18:48.687Z,29.40
2018-03-14T02:20:44.128Z,31.60
2018-03-14T02:21:44.104Z,30.60
2018-03-14T02:23:40.074Z,31.70
2018-03-14T02:24:40.019Z,33.10
2018-03-14T02:26:34.482Z,34.70
2018-03-14T02:27:34.439Z,32.80
2018-03-14T02:29:30.410Z,34.70
2018-03-14T02:30:30.368Z,32.70
2018-03-14T02:32:26.825Z,29.40
2018-03-14T02:33:24.800Z,32.80
2018-03-14T02:35:19.264Z,34.60
2018-03-14T02:36:19.755Z,33.40
2018-03-14T02:38:15.201Z,32.60
2018-03-14T02:39:15.145Z,35.00
2018-03-14T02:41:09.114Z,31.20
2018-03-14T02:42:08.611Z,33.50
2018-03-14T02:44:05.560Z,35.10
2018-03-14T02:45:04.546Z,32.60
2018-03-14T02:46:58.998Z,34.20
2018-03-14T02:47:58.974Z,32.20
2018-03-14T02:49:52.423Z,37.10
2018-03-14T02:50:52.404Z,34.60
2018-03-14T02:52:48.338Z,35.00
2018-03-14T02:53:48.326Z,43.30
2018-03-14T02:55:43.300Z,35.40
2018-03-14T02:56:43.285Z,36.60
2018-03-14T02:58:37.167Z,35.80
2018-03-14T02:59:37.170Z,34.60
2018-03-14T03:01:33.127Z,33.40
2018-03-14T03:02:33.090Z,34.40
2018-03-14T03:04:27.563Z,29.70
2018-03-14T03:05:27.531Z,30.50
2018-03-14T03:07:22.000Z,30.60
2018-03-14T03:08:21.946Z,30.00
2018-03-14T03:10:16.905Z,29.70
2018-03-14T03:11:16.388Z,30.30
2018-03-14T03:13:12.823Z,30.80
2018-03-14T03:14:12.825Z,29.70
2018-03-14T03:16:08.254Z,28.70
2018-03-14T03:17:08.212Z,30.90
2018-03-14T03:19:04.110Z,28.40
2018-03-14T03:20:04.114Z,28.70
2018-03-14T03:22:00.571Z,28.40
2018-03-14T03:23:00.046Z,25.80
2018-03-14T03:24:56.500Z,27.60
2018-03-14T03:25:55.967Z,28.60
2018-03-14T03:27:53.900Z,28.90
2018-03-14T03:28:54.419Z,30.60
2018-03-14T03:30:48.855Z,28.40
2018-03-14T03:31:48.345Z,30.20
2018-03-14T03:33:43.280Z,31.10
2018-03-14T03:34:43.285Z,31.80
2018-03-14T03:36:41.231Z,32.00
2018-03-14T03:37:40.679Z,30.60
2018-03-14T03:39:35.098Z,34.00
2018-03-14T03:40:35.100Z,34.40
2018-03-14T03:42:31.074Z,33.60
2018-03-14T03:43:31.546Z,34.40
2018-03-14T03:45:25.993Z,39.50
2018-03-14T03:46:25.492Z,36.50
2018-03-14T03:48:18.886Z,36.80
2018-03-14T03:49:19.436Z,39.60
2018-03-14T03:51:14.854Z,41.30
2018-03-14T03:52:14.825Z,39.00
2018-03-14T03:54:10.270Z,36.90
2018-03-14T03:55:09.782Z,35.90
2018-03-14T03:57:03.731Z,36.90
2018-03-14T03:58:05.212Z,39.50
2018-03-14T03:59:57.112Z,35.90
2018-03-14T04:00:57.125Z,37.90
2018-03-14T04:02:53.079Z,37.90
2018-03-14T04:03:53.079Z,37.90
2018-03-14T04:05:50.021Z,41.00
2018-03-14T04:06:49.005Z,36.60
2018-03-14T04:08:46.445Z,36.80
2018-03-14T04:09:45.449Z,40.40
2018-03-14T04:11:39.325Z,36.20
2018-03-14T04:12:39.324Z,36.80
2018-03-14T04:14:35.323Z,38.90
2018-03-14T04:15:35.254Z,39.20
2018-03-14T04:17:31.227Z,40.40
2018-03-14T04:18:31.724Z,37.90
2018-03-14T04:20:25.638Z,36.60
2018-03-14T04:21:26.149Z,38.70
2018-03-14T04:23:21.599Z,36.40
2018-03-14T04:24:22.077Z,37.50
2018-03-14T04:26:18.015Z,37.50
2018-03-14T04:27:17.482Z,35.40
2018-03-14T04:29:11.894Z,37.20
2018-03-14T04:30:11.875Z,38.10
2018-03-14T04:32:07.331Z,39.10
2018-03-14T04:33:06.843Z,35.50
2018-03-14T04:35:00.784Z,35.30
2018-03-14T04:36:00.735Z,34.70
2018-03-14T04:37:57.687Z,38.00
2018-03-14T04:38:57.184Z,39.60
2018-03-14T04:40:51.080Z,41.80
2018-03-14T04:41:51.620Z,38.30
2018-03-14T04:43:47.040Z,38.80
2018-03-14T04:44:47.020Z,40.20
2018-03-14T04:46:42.993Z,42.60
2018-03-14T04:47:43.474Z,42.30
2018-03-14T04:49:37.431Z,37.20
2018-03-14T04:50:37.376Z,36.70
2018-03-14T04:52:31.841Z,40.90
2018-03-14T04:53:31.811Z,40.90
2018-03-14T04:55:26.262Z,42.50
2018-03-14T04:56:26.255Z,39.90
2018-03-14T04:58:22.684Z,42.70
2018-03-14T04:59:22.693Z,37.50
2018-03-14T05:01:16.608Z,45.00
2018-03-14T05:02:17.113Z,45.40
2018-03-14T05:04:12.513Z,45.90
2018-03-14T05:05:12.513Z,47.40
2018-03-14T05:07:09.481Z,45.30
2018-03-14T05:08:09.441Z,47.80
2018-03-14T05:10:04.408Z,46.50
2018-03-14T05:11:03.873Z,46.90
2018-03-14T05:13:01.330Z,48.50
2018-03-14T05:13:59.795Z,49.10
2018-03-14T05:15:55.742Z,49.80
2018-03-14T05:16:55.719Z,46.70
2018-03-14T05:18:52.171Z,53.60
2018-03-14T05:19:50.100Z,52.10
2018-03-14T05:21:47.041Z,54.30
2018-03-14T05:22:46.535Z,52.50
2018-03-14T05:24:40.485Z,57.20
2018-03-14T05:25:40.966Z,55.20
2018-03-14T05:27:34.901Z,54.40
2018-03-14T05:28:34.855Z,52.60
2018-03-14T05:30:29.322Z,56.30
2018-03-14T05:31:29.804Z,54.80
2018-03-14T05:33:23.759Z,56.90
2018-03-14T05:34:23.723Z,61.50
2018-03-14T05:36:21.706Z,58.80
2018-03-14T05:37:22.163Z,62.50
2018-03-14T05:39:16.598Z,62.10
2018-03-14T05:40:16.101Z,55.70
2018-03-14T05:42:11.042Z,60.50
2018-03-14T05:43:10.512Z,66.00
2018-03-14T05:45:06.986Z,59.00
2018-03-14T05:46:06.455Z,59.70
2018-03-14T05:48:02.907Z,63.10
2018-03-14T05:49:02.422Z,61.70
2018-03-14T05:50:57.337Z,69.20
2018-03-14T05:51:56.901Z,65.50
2018-03-14T05:53:53.826Z,63.90
2018-03-14T05:54:52.786Z,65.60
2018-03-14T05:56:51.231Z,68.60
2018-03-14T05:57:51.229Z,71.40
2018-03-14T05:59:45.693Z,64.50
2018-03-14T06:00:45.661Z,62.40
2018-03-14T06:02:41.606Z,66.60
2018-03-14T06:03:41.595Z,70.00
2018-03-14T06:05:36.028Z,71.90
2018-03-14T06:06:36.030Z,65.50
2018-03-14T06:08:31.528Z,70.10
2018-03-14T06:09:32.456Z,68.80
2018-03-14T06:11:27.415Z,72.40
2018-03-14T06:12:27.400Z,76.80
2018-03-14T06:14:21.850Z,73.70
2018-03-14T06:15:22.367Z,80.80
2018-03-14T06:17:16.289Z,67.80
2018-03-14T06:18:16.305Z,68.00
2018-03-14T06:20:12.218Z,72.10
2018-03-14T06:21:12.206Z,74.40
2018-03-14T06:23:08.175Z,72.50
2018-03-14T06:24:08.199Z,74.60
2018-03-14T06:26:04.589Z,75.50
2018-03-14T06:27:04.105Z,82.40
2018-03-14T06:29:00.055Z,68.80
2018-03-14T06:29:59.983Z,71.60
2018-03-14T06:31:54.433Z,75.90
2018-03-14T06:32:54.953Z,78.00
2018-03-14T06:34:47.849Z,75.40
2018-03-14T06:35:47.846Z,71.10
2018-03-14T06:37:45.828Z,88.00
2018-03-14T06:38:46.306Z,83.10
2018-03-14T06:40:41.715Z,83.30
2018-03-14T06:41:41.700Z,83.10
2018-03-14T06:43:38.492Z,79.30
2018-03-14T06:44:38.478Z,82.40
2018-03-14T06:46:34.382Z,84.00
2018-03-14T06:47:34.923Z,78.00
2018-03-14T06:49:30.835Z,78.30
2018-03-14T06:50:30.313Z,82.70
2018-03-14T06:52:26.247Z,88.70
2018-03-14T06:53:26.251Z,86.30
2018-03-14T06:55:20.700Z,85.90
2018-03-14T06:56:20.710Z,77.50
2018-03-14T06:58:15.079Z,82.80
2018-03-14T06:59:15.102Z,76.10
2018-03-14T07:01:11.546Z,73.40
2018-03-14T07:02:11.029Z,76.80
2018-03-14T07:04:07.006Z,75.90
2018-03-14T07:05:07.467Z,71.20
2018-03-14T07:07:02.892Z,68.90
2018-03-14T07:08:01.382Z,73.20
2018-03-14T07:09:57.325Z,71.10
2018-03-14T07:10:57.888Z,78.30
2018-03-14T07:12:53.246Z,71.70
2018-03-14T07:13:53.226Z,75.10
2018-03-14T07:15:49.194Z,75.30
2018-03-14T07:16:50.109Z,77.70
2018-03-14T07:18:42.601Z,74.60
2018-03-14T07:19:43.116Z,71.30
2018-03-14T07:21:38.515Z,68.40
2018-03-14T07:22:39.025Z,68.20
2018-03-14T07:24:36.485Z,70.50
2018-03-14T07:25:36.964Z,70.90
2018-03-14T07:27:32.412Z,69.90
2018-03-14T07:28:32.407Z,68.70
2018-03-14T07:30:28.322Z,67.90
2018-03-14T07:31:28.349Z,66.70
2018-03-14T07:33:24.294Z,74.00
2018-03-14T07:34:24.262Z,77.20
2018-03-14T07:36:20.724Z,73.80
2018-03-14T07:37:20.707Z,79.10
2018-03-14T07:39:16.145Z,73.70
2018-03-14T07:40:16.630Z,75.70
2018-03-14T07:42:14.557Z,78.00
2018-03-14T07:43:14.543Z,71.80
2018-03-14T07:45:09.951Z,71.50
2018-03-14T07:46:11.467Z,72.80
2018-03-14T07:48:04.887Z,65.20
2018-03-14T07:49:04.367Z,62.90
2018-03-14T07:51:00.317Z,63.90
2018-03-14T07:51:58.782Z,62.10
2018-03-14T07:53:54.751Z,60.80
2018-03-14T07:54:54.701Z,65.40
2018-03-14T07:56:52.077Z,54.80
2018-03-14T07:57:50.626Z,57.50
2018-03-14T07:59:45.106Z,59.60
2018-03-14T08:00:45.596Z,60.30
2018-03-14T08:02:42.526Z,53.20
2018-03-14T08:03:41.002Z,53.20
2018-03-14T08:05:37.468Z,56.40
2018-03-14T08:06:36.921Z,56.70
2018-03-14T08:08:32.839Z,52.70
2018-03-14T08:09:32.842Z,51.60
2018-03-14T08:11:28.797Z,50.40
2018-03-14T08:12:28.772Z,53.80
2018-03-14T08:14:24.725Z,50.80
2018-03-14T08:15:25.210Z,50.10
2018-03-14T08:17:19.161Z,45.90
2018-03-14T08:18:19.129Z,46.70
2018-03-14T08:20:16.110Z,44.30
2018-03-14T08:22:31.576Z,45.50
2018-03-14T08:23:31.071Z,47.00
2018-03-14T08:25:27.026Z,45.10
2018-03-14T08:26:27.524Z,44.70
2018-03-14T08:29:56.101Z,43.70
2018-03-14T08:30:57.544Z,43.70
2018-03-14T08:32:52.057Z,41.90
2018-03-14T08:33:52.029Z,38.60
2018-03-14T08:35:48.483Z,46.80
2018-03-14T08:36:48.498Z,45.00
2018-03-14T08:38:45.929Z,50.70
2018-03-14T08:39:46.423Z,53.00
2018-03-14T08:41:39.836Z,49.70
2018-03-14T08:42:39.315Z,47.70
2018-03-14T08:44:36.197Z,47.00
2018-03-14T08:45:35.768Z,44.60
2018-03-14T08:47:31.204Z,47.20
2018-03-14T08:48:31.701Z,44.50
2018-03-14T08:50:27.142Z,40.70
2018-03-14T08:51:28.634Z,40.60
2018-03-14T08:53:23.568Z,42.50
2018-03-14T08:54:23.596Z,42.00
2018-03-14T08:56:18.990Z,44.20
2018-03-14T08:57:19.496Z,40.10
2018-03-14T08:59:14.417Z,35.60
2018-03-14T09:00:13.357Z,37.20
2018-03-14T09:02:08.317Z,37.20
2018-03-14T09:03:07.814Z,39.30
2018-03-14T09:05:03.797Z,38.30
2018-03-14T09:06:04.260Z,33.20
2018-03-14T09:07:58.154Z,33.90
2018-03-14T09:08:58.171Z,33.50
2018-03-14T09:10:53.122Z,41.20
2018-03-14T09:11:53.128Z,39.90
2018-03-14T09:13:48.517Z,36.20
2018-03-14T09:14:49.049Z,38.80
2018-03-14T09:16:44.969Z,35.10
2018-03-14T09:17:44.448Z,36.20
2018-03-14T09:19:39.905Z,35.80
2018-03-14T09:20:38.873Z,40.20
2018-03-14T09:22:34.851Z,40.20
2018-03-14T09:23:34.809Z,39.20
2018-03-14T09:25:31.279Z,41.30
2018-03-14T09:26:30.744Z,40.90
2018-03-14T09:28:24.176Z,39.10
2018-03-14T09:29:24.133Z,39.20
2018-03-14T09:31:20.117Z,35.10
2018-03-14T09:32:20.082Z,38.90
2018-03-14T09:34:17.032Z,44.70
2018-03-14T09:35:16.016Z,40.20
2018-03-14T09:37:12.484Z,40.80
2018-03-14T09:38:11.944Z,41.70
2018-03-14T09:40:08.391Z,37.40
2018-03-14T09:41:07.871Z,36.30
2018-03-14T09:43:02.825Z,41.30
2018-03-14T09:44:02.301Z,37.30
2018-03-14T09:45:57.256Z,29.30
2018-03-14T09:46:57.253Z,28.60
2018-03-14T09:48:51.676Z,25.60
2018-03-14T09:49:51.139Z,21.70
2018-03-14T09:51:47.103Z,23.00
2018-03-14T09:52:47.581Z,20.60
2018-03-14T09:54:42.004Z,18.10
2018-03-14T09:55:42.002Z,17.70
2018-03-14T09:57:36.435Z,26.50
2018-03-14T09:58:35.927Z,23.00
2018-03-14T10:00:30.378Z,22.70
2018-03-14T10:01:30.881Z,21.00
2018-03-14T10:03:26.794Z,22.00
2018-03-14T10:04:25.314Z,23.40
2018-03-14T10:06:20.233Z,21.40
2018-03-14T10:07:19.227Z,22.10
2018-03-14T10:09:15.163Z,13.80
2018-03-14T10:10:13.990Z,17.20
2018-03-14T10:12:10.942Z,16.40
2018-03-14T10:13:10.450Z,17.10
2018-03-14T10:15:05.899Z,17.60
2018-03-14T10:16:06.391Z,17.80
2018-03-14T10:18:00.326Z,17.30
2018-03-14T10:19:00.834Z,18.80
2018-03-14T10:20:54.769Z,18.50
2018-03-14T10:21:54.771Z,18.60
2018-03-14T10:23:49.197Z,21.60
2018-03-14T10:24:49.183Z,19.30
2018-03-14T10:26:43.636Z,18.20
2018-03-14T10:27:43.627Z,16.70
2018-03-14T10:29:40.080Z,17.60
2018-03-14T10:30:39.560Z,17.40
2018-03-14T10:32:37.050Z,17.70
2018-03-14T10:33:35.491Z,19.90
2018-03-14T10:35:30.444Z,19.70
2018-03-14T10:36:29.919Z,18.60
2018-03-14T10:38:26.368Z,17.10
2018-03-14T10:39:25.826Z,17.70
2018-03-14T10:41:20.274Z,18.30
2018-03-14T10:42:20.259Z,17.40
2018-03-14T10:44:14.697Z,11.90
2018-03-14T10:45:14.695Z,13.20
2018-03-14T10:47:11.164Z,16.50
2018-03-14T10:48:11.155Z,15.70
2018-03-14T10:50:05.097Z,17.10
2018-03-14T10:51:05.065Z,19.50
2018-03-14T10:53:01.529Z,18.30
2018-03-14T10:54:01.003Z,19.10
2018-03-14T10:55:55.957Z,20.80
2018-03-14T10:56:55.978Z,18.90
2018-03-14T10:58:51.432Z,21.00
2018-03-14T10:59:51.339Z,21.70
2018-03-14T11:01:45.296Z,19.50
2018-03-14T11:02:44.790Z,17.20
2018-03-14T11:04:39.230Z,18.40
2018-03-14T11:05:38.226Z,18.50
2018-03-14T11:07:31.668Z,16.80
2018-03-14T11:08:32.179Z,14.70
2018-03-14T11:10:28.598Z,21.10
2018-03-14T11:11:27.597Z,17.00
2018-03-14T11:13:23.549Z,15.60
2018-03-14T11:14:23.545Z,21.10
2018-03-14T11:16:18.012Z,17.40
2018-03-14T11:17:17.993Z,15.50
2018-03-14T11:19:11.952Z,16.70
2018-03-14T11:20:11.939Z,15.00
2018-03-14T11:22:06.349Z,19.00
2018-03-14T11:23:05.825Z,17.00
2018-03-14T11:25:01.788Z,14.80
2018-03-14T11:26:01.795Z,15.30
2018-03-14T11:29:33.501Z,15.40
2018-03-14T11:30:32.975Z,16.50
2018-03-14T11:32:27.425Z,20.30
2018-03-14T11:33:27.439Z,17.60
2018-03-14T11:35:22.377Z,16.90
2018-03-14T11:36:21.873Z,16.00
2018-03-14T11:38:18.839Z,17.00
2018-03-14T11:39:19.334Z,18.30
2018-03-14T11:41:13.710Z,13.40
2018-03-14T11:42:13.759Z,13.30
2018-03-14T11:44:09.692Z,15.50
2018-03-14T11:45:09.653Z,14.60
2018-03-14T11:47:05.644Z,17.20
2018-03-14T11:48:06.613Z,15.10
2018-03-14T11:50:01.583Z,14.60
2018-03-14T11:51:01.585Z,14.90
2018-03-14T11:52:55.525Z,13.50
2018-03-14T11:53:55.548Z,15.30
2018-03-14T11:55:49.505Z,13.80
2018-03-14T11:56:49.460Z,15.60
2018-03-14T11:58:45.438Z,16.00
2018-03-14T11:59:45.384Z,15.80
2018-03-14T12:01:39.890Z,15.20
2018-03-14T12:02:39.831Z,18.10
2018-03-14T12:04:36.286Z,16.10
2018-03-14T12:05:36.285Z,18.70
2018-03-14T12:07:30.243Z,16.50
2018-03-14T12:08:30.224Z,18.70
2018-03-14T12:10:25.186Z,18.10
2018-03-14T12:11:24.689Z,16.30
2018-03-14T12:13:20.153Z,17.80
2018-03-14T12:14:19.128Z,16.90
2018-03-14T12:16:13.096Z,17.80
2018-03-14T12:17:12.570Z,17.00
2018-03-14T12:19:08.024Z,18.20
2018-03-14T12:20:06.967Z,15.90
2018-03-14T12:22:01.417Z,15.40
2018-03-14T12:23:01.429Z,18.50
2018-03-14T12:24:55.864Z,16.50
2018-03-14T12:25:55.873Z,15.00
2018-03-14T12:27:51.322Z,16.00
2018-03-14T12:28:50.430Z,14.10
2018-03-14T12:30:48.415Z,16.60
2018-03-14T12:31:46.388Z,16.70
2018-03-14T12:33:42.366Z,14.90
2018-03-14T12:34:42.382Z,14.60
2018-03-14T12:36:38.273Z,19.00
2018-03-14T12:37:38.253Z,19.30
2018-03-14T12:39:31.746Z,16.00
2018-03-14T12:40:31.706Z,16.20
2018-03-14T12:42:26.660Z,17.90
2018-03-14T12:43:26.152Z,20.70
2018-03-14T12:45:22.087Z,17.30
2018-03-14T12:46:22.080Z,13.50
2018-03-14T12:48:17.039Z,16.30
2018-03-14T12:49:16.510Z,14.00
2018-03-14T12:51:09.975Z,16.60
2018-03-14T12:52:09.952Z,15.50
2018-03-14T12:54:04.954Z,14.80
2018-03-14T12:55:04.360Z,14.80
2018-03-14T12:57:00.327Z,16.00
2018-03-14T12:57:58.808Z,15.20
2018-03-14T12:59:53.230Z,20.10
2018-03-14T13:00:53.273Z,17.80
2018-03-14T13:02:48.696Z,20.70
2018-03-14T13:03:47.195Z,14.60
2018-03-14T13:05:41.155Z,12.60
2018-03-14T13:06:41.125Z,16.90
2018-03-14T13:08:38.086Z,13.60
2018-03-14T13:09:37.021Z,13.40
2018-03-14T13:11:31.506Z,16.30
2018-03-14T13:12:31.476Z,16.30
2018-03-14T13:14:26.453Z,15.00
2018-03-14T13:15:26.428Z,15.90
2018-03-14T13:17:21.876Z,16.80
2018-03-14T13:18:21.359Z,17.60
2018-03-14T13:20:16.312Z,16.90
2018-03-14T13:21:15.791Z,16.50
2018-03-14T13:23:10.239Z,21.90
2018-03-14T13:24:10.244Z,23.80
2018-03-14T13:26:03.705Z,16.30
2018-03-14T13:27:03.683Z,15.80
2018-03-14T13:28:57.660Z,13.90
2018-03-14T13:29:57.665Z,15.20
2018-03-14T13:31:51.586Z,15.40
2018-03-14T13:32:51.580Z,16.00
2018-03-14T13:34:47.470Z,20.10
2018-03-14T13:35:47.465Z,13.80
2018-03-14T13:37:43.440Z,14.80
2018-03-14T13:38:43.420Z,15.00
2018-03-14T13:40:39.385Z,12.40
2018-03-14T13:41:37.862Z,14.40
2018-03-14T13:43:34.835Z,12.00
2018-03-14T13:44:33.841Z,14.00
2018-03-14T13:46:29.799Z,13.90
2018-03-14T13:47:29.808Z,13.80
2018-03-14T13:49:23.321Z,15.70
2018-03-14T13:50:23.381Z,16.60
2018-03-14T13:52:16.696Z,17.80
2018-03-14T13:53:16.685Z,14.40
2018-03-14T13:55:12.664Z,15.20
2018-03-14T13:56:12.700Z,15.50
2018-03-14T13:58:07.115Z,13.40
2018-03-14T13:59:07.109Z,12.60
2018-03-14T14:01:00.567Z,18.20
2018-03-14T14:02:00.616Z,15.80
2018-03-14T14:03:55.944Z,20.80
2018-03-14T14:04:55.539Z,17.70
2018-03-14T14:06:48.974Z,15.30
2018-03-14T14:07:48.465Z,14.50
2018-03-14T14:09:44.936Z,14.90
2018-03-14T14:10:44.396Z,14.30
2018-03-14T14:12:40.336Z,13.80
2018-03-14T14:13:40.333Z,14.50
2018-03-14T14:15:36.335Z,13.20
2018-03-14T14:16:36.309Z,12.70
2018-03-14T14:18:32.237Z,13.00
2018-03-14T14:19:32.222Z,11.30
2018-03-14T14:21:28.221Z,10.30
2018-03-14T14:22:28.182Z,11.40
2018-03-14T14:24:22.617Z,19.90
2018-03-14T14:25:22.658Z,16.70
2018-03-14T14:27:20.593Z,13.00
2018-03-14T14:28:20.545Z,11.70
2018-03-14T14:30:16.523Z,10.80
2018-03-14T14:31:16.512Z,12.30
2018-03-14T14:33:12.971Z,10.90
2018-03-14T14:34:12.447Z,10.80
2018-03-14T14:36:08.455Z,10.40
2018-03-14T14:37:08.404Z,12.20
2018-03-14T14:39:06.285Z,11.00
2018-03-14T14:40:05.347Z,13.00
2018-03-14T14:42:01.370Z,13.50
2018-03-14T14:43:01.251Z,11.70
2018-03-14T14:44:54.767Z,16.20
2018-03-14T14:45:54.807Z,13.30
2018-03-14T14:47:48.217Z,11.80
2018-03-14T14:48:48.221Z,11.30
2018-03-14T14:50:42.685Z,12.10
2018-03-14T14:51:43.622Z,13.10
2018-03-14T14:53:37.119Z,10.40
2018-03-14T14:54:38.588Z,13.90
2018-03-14T14:56:33.685Z,10.60
2018-03-14T14:57:33.566Z,10.30
2018-03-14T14:59:28.995Z,8.80
2018-03-14T15:00:30.069Z,10.60
2018-03-14T15:02:24.458Z,12.20
2018-03-14T15:03:24.928Z,13.50
2018-03-14T15:05:19.899Z,10.50
2018-03-14T15:06:19.895Z,9.70
2018-03-14T15:08:17.856Z,12.00
2018-03-14T15:09:15.847Z,11.70
2018-03-14T15:11:11.253Z,13.80
2018-03-14T15:12:11.757Z,11.40
2018-03-14T15:14:07.212Z,14.40
2018-03-14T15:15:07.218Z,9.90
2018-03-14T15:17:05.203Z,11.30
2018-03-14T15:18:03.186Z,12.70
2018-03-14T15:19:57.625Z,16.20
2018-03-14T15:20:58.141Z,15.80
2018-03-14T15:22:54.084Z,15.40
2018-03-14T15:23:53.579Z,12.60
2018-03-14T15:25:48.059Z,13.90
2018-03-14T15:26:48.032Z,11.10
2018-03-14T15:28:43.927Z,11.40
2018-03-14T15:29:43.939Z,9.80
2018-03-14T15:31:39.926Z,10.80
2018-03-14T15:32:39.932Z,9.20
2018-03-14T15:34:35.871Z,13.60
2018-03-14T15:35:34.886Z,11.20
2018-03-14T15:37:30.819Z,10.60
2018-03-14T15:38:30.807Z,10.40
2018-03-14T15:40:26.766Z,11.30
2018-03-14T15:41:27.756Z,12.40
2018-03-14T15:43:22.202Z,11.10
2018-03-14T15:44:22.206Z,13.60
2018-03-14T15:46:16.653Z,11.30
2018-03-14T15:47:16.178Z,12.20
2018-03-14T15:49:11.601Z,10.40
2018-03-14T15:50:11.567Z,11.10
2018-03-14T15:52:07.529Z,9.60
2018-03-14T15:53:07.549Z,9.70
2018-03-14T15:55:03.478Z,11.10
2018-03-14T15:56:02.802Z,14.50
2018-03-14T15:57:58.779Z,11.10
2018-03-14T15:58:59.254Z,12.90
2018-03-14T16:00:53.199Z,8.80
2018-03-14T16:01:53.707Z,10.30
2018-03-14T16:03:49.681Z,13.70
2018-03-14T16:04:49.172Z,10.60
2018-03-14T16:06:44.629Z,17.00
2018-03-14T16:07:43.677Z,12.60
2018-03-14T16:09:39.631Z,12.50
2018-03-14T16:10:40.143Z,10.30
2018-03-14T16:12:36.044Z,12.60
2018-03-14T16:13:35.536Z,9.20
2018-03-14T16:15:30.012Z,10.50
2018-03-14T16:16:29.976Z,9.30
2018-03-14T16:18:26.917Z,10.80
2018-03-14T16:19:25.876Z,10.10
2018-03-14T16:21:23.842Z,10.90
2018-03-14T16:23:39.251Z,11.80
2018-03-14T16:24:39.237Z,11.00
2018-03-14T16:26:33.718Z,12.20
2018-03-14T16:27:34.190Z,11.20
2018-03-14T16:29:29.657Z,10.80
2018-03-14T16:30:29.623Z,12.30
2018-03-14T16:32:27.686Z,10.00
2018-03-14T16:33:27.698Z,11.80
2018-03-14T16:35:23.681Z,9.40
2018-03-14T16:36:23.652Z,9.70
2018-03-14T16:38:17.089Z,10.80
2018-03-14T16:39:17.597Z,9.50
2018-03-14T16:41:14.020Z,9.30
2018-03-14T16:42:13.001Z,7.80
2018-03-14T16:44:08.456Z,9.50
2018-03-14T16:45:07.994Z,10.80
2018-03-14T16:47:02.396Z,12.30
2018-03-14T16:48:01.917Z,10.90
2018-03-14T16:49:58.357Z,10.10
2018-03-14T16:50:58.354Z,9.30
2018-03-14T16:52:52.799Z,10.30
2018-03-14T16:53:52.282Z,10.50
2018-03-14T16:55:48.662Z,10.40
2018-03-14T16:56:46.733Z,10.20
2018-03-14T16:58:40.698Z,12.70
2018-03-14T16:59:40.683Z,9.80
2018-03-14T17:01:36.608Z,8.50
2018-03-14T17:02:36.586Z,9.80
2018-03-14T17:04:32.048Z,9.70
2018-03-14T17:05:32.011Z,10.30
2018-03-14T17:07:26.474Z,9.10
2018-03-14T17:08:26.975Z,8.00
2018-03-14T17:10:22.952Z,9.50
2018-03-14T17:11:22.418Z,9.50
2018-03-14T17:13:18.888Z,9.00
2018-03-14T17:14:27.135Z,8.80
2018-03-14T17:16:14.324Z,11.20
2018-03-14T17:17:14.816Z,11.60
2018-03-14T17:19:08.726Z,10.30
2018-03-14T17:20:08.725Z,11.70
2018-03-14T17:22:04.692Z,9.50
2018-03-14T17:23:05.177Z,7.80
2018-03-14T17:25:00.598Z,8.00
2018-03-14T17:26:00.612Z,11.30
2018-03-14T17:27:57.073Z,8.90
2018-03-14T17:28:57.052Z,7.00
2018-03-14T17:30:53.508Z,9.00
2018-03-14T17:31:52.518Z,8.80
2018-03-14T17:33:48.465Z,10.90
2018-03-14T17:34:48.957Z,8.70
2018-03-14T17:36:43.895Z,8.70
2018-03-14T17:37:43.411Z,9.50
2018-03-14T17:39:38.850Z,9.30
2018-03-14T17:40:38.844Z,8.30
2018-03-14T17:42:34.795Z,10.00
2018-03-14T17:43:33.786Z,7.60
2018-03-14T17:45:29.298Z,9.90
2018-03-14T17:46:29.293Z,11.30
2018-03-14T17:48:25.225Z,12.20
2018-03-14T17:49:25.712Z,7.70
2018-03-14T17:51:18.662Z,11.10
2018-03-14T17:52:18.640Z,9.90
2018-03-14T17:54:16.089Z,8.00
2018-03-14T17:55:16.099Z,8.10
2018-03-14T17:57:18.028Z,9.10
2018-03-14T17:58:14.541Z,6.30
2018-03-14T18:00:07.060Z,10.20
2018-03-14T18:01:07.600Z,8.90
2018-03-14T18:03:15.543Z,9.50
2018-03-14T18:05:40.993Z,7.50
2018-03-14T18:08:06.485Z,7.30
2018-03-14T18:09:05.443Z,8.60
2018-03-14T18:11:03.937Z,6.70
2018-03-14T18:12:03.023Z,7.50
2018-03-14T18:13:58.977Z,8.60
2018-03-14T18:14:59.468Z,8.40
2018-03-14T18:19:00.023Z,6.00
2018-03-14T18:19:58.002Z,6.80
2018-03-14T18:21:55.955Z,8.70
2018-03-14T18:22:55.449Z,8.00
2018-03-14T18:25:01.873Z,9.10
2018-03-14T18:25:59.884Z,6.70
2018-03-14T18:27:53.826Z,7.90
2018-03-14T18:28:53.803Z,8.80
2018-03-14T18:30:51.273Z,10.10
2018-03-14T18:31:49.732Z,9.30
2018-03-14T18:33:48.182Z,8.10
2018-03-14T18:34:48.188Z,8.10
2018-03-14T18:36:56.607Z,8.50
2018-03-14T18:37:55.125Z,8.70
2018-03-14T18:39:50.575Z,7.90
2018-03-14T18:40:50.566Z,7.30
2018-03-14T18:42:47.514Z,13.40
2018-03-14T18:43:47.006Z,9.30
2018-03-14T18:45:44.458Z,12.10
2018-03-14T18:46:42.953Z,9.00
2018-03-14T18:48:38.903Z,8.10
2018-03-14T18:49:38.344Z,7.90
2018-03-14T18:51:34.301Z,12.60
2018-03-14T18:52:34.290Z,10.50
2018-03-14T18:54:29.228Z,7.60
2018-03-14T18:55:29.248Z,8.80
2018-03-14T18:57:26.186Z,8.80
2018-03-14T18:58:24.647Z,9.10
2018-03-14T19:00:20.588Z,8.50
2018-03-14T19:01:20.603Z,7.80